createdAt,value
2018-08-07T00:02:27.367Z,30.90
2018-08-07T00:07:23.829Z,30.90
2018-08-07T00:09:52.303Z,30.90
2018-08-07T00:12:20.643Z,30.90
2018-08-07T00:14:49.513Z,30.90
2018-08-07T00:17:20.887Z,30.90
2018-08-07T00:19:49.447Z,30.90
2018-08-07T00:22:17.936Z,30.80
2018-08-07T00:24:46.282Z,30.80
2018-08-07T00:27:14.771Z,30.70
2018-08-07T00:29:43.269Z,30.70
2018-08-07T00:32:11.679Z,30.70
2018-08-07T00:34:40.088Z,30.60
2018-08-07T00:37:08.480Z,30.60
2018-08-07T00:39:36.929Z,30.50
2018-08-07T00:42:05.338Z,30.50
2018-08-07T00:44:33.787Z,30.50
2018-08-07T00:47:02.151Z,30.40
2018-08-07T00:49:30.664Z,30.40
2018-08-07T00:51:59.045Z,30.30
2018-08-07T00:54:27.609Z,30.20
2018-08-07T00:59:24.146Z,30.20
2018-08-07T01:01:52.613Z,30.20
2018-08-07T01:04:20.970Z,30.10
2018-08-07T01:06:49.499Z,30.00
2018-08-07T01:09:17.890Z,30.00
2018-08-07T01:11:46.415Z,30.00
2018-08-07T01:14:14.892Z,29.90
2018-08-07T01:16:43.511Z,29.90
2018-08-07T01:19:12.094Z,29.80
2018-08-07T01:21:40.446Z,29.80
2018-08-07T01:24:08.842Z,29.70
2018-08-07T01:26:37.270Z,29.70
2018-08-07T01:29:05.953Z,29.70
2018-08-07T01:31:35.205Z,29.60
2018-08-07T01:34:03.640Z,29.60
2018-08-07T01:36:32.232Z,29.60
2018-08-07T01:39:00.568Z,29.60
2018-08-07T01:41:28.936Z,29.50
2018-08-07T01:43:57.513Z,29.50
2018-08-07T01:46:25.886Z,29.30
2018-08-07T01:48:54.341Z,29.00
2018-08-07T01:51:22.899Z,28.80
2018-08-07T01:53:51.243Z,28.60
2018-08-07T01:56:19.683Z,28.60
2018-08-07T01:58:48.168Z,28.60
2018-08-07T02:01:16.567Z,28.60
2018-08-07T02:03:44.947Z,28.70
2018-08-07T02:08:41.469Z,28.70
2018-08-07T02:11:09.896Z,28.80
2018-08-07T02:13:38.228Z,28.70
2018-08-07T02:16:06.651Z,28.70
2018-08-07T02:18:35.010Z,28.60
2018-08-07T02:21:03.430Z,28.60
2018-08-07T02:23:31.855Z,28.60
2018-08-07T02:26:00.208Z,28.60
2018-08-07T02:28:28.563Z,28.60
2018-08-07T02:30:56.911Z,28.60
2018-08-07T02:33:25.359Z,28.50
2018-08-07T02:35:53.761Z,28.50
2018-08-07T02:38:22.175Z,28.50
2018-08-07T02:40:50.520Z,28.50
2018-08-07T02:45:47.008Z,28.40
2018-08-07T02:48:15.339Z,28.40
2018-08-07T02:50:43.744Z,28.40
2018-08-07T02:53:12.111Z,28.40
2018-08-07T02:55:40.509Z,28.40
2018-08-07T02:58:08.913Z,28.40
2018-08-07T03:00:41.690Z,28.30
2018-08-07T03:03:10.400Z,28.30
2018-08-07T03:05:38.841Z,28.30
2018-08-07T03:08:07.633Z,28.20
2018-08-07T03:10:35.959Z,28.20
2018-08-07T03:13:04.461Z,28.20
2018-08-07T03:15:32.919Z,28.10
2018-08-07T03:18:01.317Z,28.10
2018-08-07T03:20:29.624Z,28.10
2018-08-07T03:22:57.968Z,28.10
2018-08-07T03:25:26.446Z,28.10
2018-08-07T03:27:54.778Z,28.00
2018-08-07T03:30:23.179Z,28.00
2018-08-07T03:35:19.530Z,28.00
2018-08-07T03:37:47.922Z,28.00
2018-08-07T03:40:17.461Z,28.00
2018-08-07T03:42:45.992Z,28.00
2018-08-07T03:45:15.556Z,28.00
2018-08-07T03:47:44.813Z,27.90
2018-08-07T03:50:13.290Z,27.90
2018-08-07T03:55:12.945Z,27.90
2018-08-07T04:00:19.424Z,27.80
2018-08-07T04:02:47.931Z,27.70
2018-08-07T04:05:16.530Z,27.70
2018-08-07T04:07:45.019Z,27.60
2018-08-07T04:10:14.958Z,27.60
2018-08-07T04:12:43.427Z,27.60
2018-08-07T04:15:13.502Z,27.60
2018-08-07T04:17:42.672Z,27.60
2018-08-07T04:20:12.788Z,27.50
2018-08-07T04:22:41.208Z,27.50
2018-08-07T04:25:09.619Z,27.50
2018-08-07T04:27:38.367Z,27.40
2018-08-07T04:30:09.711Z,27.30
2018-08-07T04:32:38.064Z,27.30
2018-08-07T04:35:06.375Z,27.20
2018-08-07T04:37:35.030Z,27.20
2018-08-07T04:40:03.512Z,27.20
2018-08-07T04:42:31.851Z,27.20
2018-08-07T04:45:00.231Z,27.30
2018-08-07T04:47:28.647Z,27.30
2018-08-07T04:49:57.084Z,27.30
2018-08-07T04:52:25.451Z,27.30
2018-08-07T04:54:53.780Z,27.30
2018-08-07T04:57:22.097Z,27.40
2018-08-07T04:59:50.683Z,27.40
2018-08-07T05:02:19.175Z,26.60
2018-08-07T05:04:47.551Z,27.50
2018-08-07T05:07:15.907Z,27.50
2018-08-07T05:09:47.179Z,27.50
2018-08-07T05:12:15.631Z,27.60
2018-08-07T05:14:44.083Z,27.50
2018-08-07T05:17:13.052Z,27.60
2018-08-07T05:19:41.519Z,27.60
2018-08-07T05:22:10.099Z,27.70
2018-08-07T05:24:38.482Z,27.70
2018-08-07T05:27:06.923Z,27.70
2018-08-07T05:29:35.390Z,27.80
2018-08-07T05:32:03.807Z,27.80
2018-08-07T05:34:32.322Z,27.90
2018-08-07T05:37:00.642Z,27.90
2018-08-07T05:39:29.011Z,28.00
2018-08-07T05:41:57.432Z,28.00
2018-08-07T05:44:25.943Z,28.10
2018-08-07T05:46:54.298Z,28.10
2018-08-07T05:49:22.631Z,28.10
2018-08-07T05:51:50.959Z,28.10
2018-08-07T05:54:19.363Z,28.10
2018-08-07T05:56:47.940Z,28.20
2018-08-07T05:59:16.708Z,28.20
2018-08-07T06:01:45.087Z,28.20
2018-08-07T06:04:13.510Z,28.30
2018-08-07T06:06:41.967Z,28.30
2018-08-07T06:09:10.571Z,28.30
2018-08-07T06:11:39.015Z,28.40
2018-08-07T06:14:07.396Z,28.40
2018-08-07T06:16:35.818Z,28.50
2018-08-07T06:19:04.555Z,28.50
2018-08-07T06:21:33.020Z,28.60
2018-08-07T06:24:01.441Z,28.70
2018-08-07T06:26:29.819Z,28.70
2018-08-07T06:28:58.191Z,28.90
2018-08-07T06:31:26.578Z,28.90
2018-08-07T06:33:54.898Z,29.00
2018-08-07T06:36:23.331Z,29.10
2018-08-07T06:38:51.835Z,29.20
2018-08-07T06:41:20.704Z,29.30
2018-08-07T06:43:49.029Z,29.40
2018-08-07T06:46:17.620Z,29.40
2018-08-07T06:48:46.299Z,29.50
2018-08-07T06:51:14.755Z,29.60
2018-08-07T06:53:43.136Z,29.70
2018-08-07T06:56:11.487Z,29.70
2018-08-07T07:01:08.134Z,29.80
2018-08-07T07:03:36.513Z,29.90
2018-08-07T07:06:04.864Z,29.90
2018-08-07T07:08:33.324Z,30.00
2018-08-07T07:11:01.679Z,30.10
2018-08-07T07:13:29.983Z,30.10
2018-08-07T07:15:58.349Z,30.10
2018-08-07T07:18:26.735Z,30.20
2018-08-07T07:20:55.181Z,30.30
2018-08-07T07:23:23.564Z,30.40
2018-08-07T07:25:51.909Z,30.60
2018-08-07T07:28:20.410Z,30.80
2018-08-07T07:30:48.770Z,31.00
2018-08-07T07:33:17.259Z,31.10
2018-08-07T07:35:45.945Z,31.30
2018-08-07T07:38:14.448Z,31.40
2018-08-07T07:40:42.964Z,31.50
2018-08-07T07:43:11.305Z,31.70
2018-08-07T07:45:39.869Z,32.00
2018-08-07T07:48:08.536Z,32.30
2018-08-07T07:50:36.996Z,32.70
2018-08-07T07:53:05.407Z,33.00
2018-08-07T07:55:33.818Z,33.30
2018-08-07T07:58:02.262Z,33.50
2018-08-07T08:00:30.707Z,33.80
2018-08-07T08:02:59.207Z,34.00
2018-08-07T08:05:27.667Z,34.30
2018-08-07T08:07:56.475Z,34.50
2018-08-07T08:10:24.881Z,34.40
2018-08-07T08:12:53.444Z,34.30
2018-08-07T08:15:21.786Z,34.30
2018-08-07T08:17:50.471Z,34.40
2018-08-07T08:20:21.099Z,34.60
2018-08-07T08:22:50.679Z,34.80
2018-08-07T08:25:19.216Z,35.10
2018-08-07T08:27:47.856Z,35.50
2018-08-07T08:30:17.155Z,35.90
2018-08-07T08:32:46.171Z,36.30
2018-08-07T08:35:15.995Z,36.70
2018-08-07T08:37:45.054Z,37.10
2018-08-07T08:40:19.120Z,37.40
2018-08-07T08:42:47.706Z,37.80
2018-08-07T08:45:21.123Z,38.10
2018-08-07T08:47:50.812Z,38.50
2018-08-07T08:50:20.682Z,38.60
2018-08-07T08:52:49.180Z,38.80
2018-08-07T08:55:17.623Z,38.90
2018-08-07T08:57:46.362Z,39.00
2018-08-07T09:00:19.473Z,39.00
2018-08-07T09:02:48.342Z,39.20
2018-08-07T09:05:16.807Z,39.40
2018-08-07T09:07:45.930Z,39.60
2018-08-07T09:10:19.955Z,39.80
2018-08-07T09:12:49.021Z,40.00
2018-08-07T09:15:17.497Z,40.20
2018-08-07T09:17:46.260Z,40.40
2018-08-07T09:20:24.060Z,40.50
2018-08-07T09:22:52.562Z,40.60
2018-08-07T09:25:21.808Z,40.90
2018-08-07T09:27:50.588Z,41.10
2018-08-07T09:30:29.563Z,41.30
2018-08-07T09:32:58.356Z,41.40
2018-08-07T09:35:26.792Z,41.30
2018-08-07T09:37:56.338Z,41.40
2018-08-07T09:40:24.721Z,41.50
2018-08-07T09:42:54.211Z,41.50
2018-08-07T09:45:26.558Z,41.60
2018-08-07T09:47:54.877Z,41.70
2018-08-07T09:50:23.244Z,41.50
2018-08-07T09:52:51.715Z,41.60
2018-08-07T09:55:20.161Z,41.70
2018-08-07T10:00:23.266Z,42.20
2018-08-07T10:02:54.776Z,42.40
2018-08-07T10:05:25.630Z,42.80
2018-08-07T10:07:55.055Z,43.10
2018-08-07T10:10:23.611Z,42.90
2018-08-07T10:12:51.975Z,42.80
2018-08-07T10:15:20.609Z,43.00
2018-08-07T10:17:48.989Z,42.90
2018-08-07T10:20:17.430Z,43.00
2018-08-07T10:22:46.102Z,43.00
2018-08-07T10:25:15.911Z,43.10
2018-08-07T10:27:45.872Z,43.30
2018-08-07T10:30:15.731Z,43.70
2018-08-07T10:32:44.296Z,43.90
2018-08-07T10:35:13.631Z,43.80
2018-08-07T10:37:43.009Z,43.40
2018-08-07T10:40:13.091Z,43.00
2018-08-07T10:42:41.727Z,42.60
2018-08-07T10:45:12.216Z,42.60
2018-08-07T10:47:41.207Z,42.70
2018-08-07T10:50:14.566Z,43.00
2018-08-07T10:52:43.190Z,43.40
2018-08-07T10:55:11.580Z,43.20
2018-08-07T10:57:42.141Z,42.90
2018-08-07T11:00:13.790Z,43.00
2018-08-07T11:02:42.750Z,43.10
2018-08-07T11:05:11.435Z,43.20
2018-08-07T11:07:39.935Z,43.40
2018-08-07T11:10:09.856Z,43.70
2018-08-07T11:12:38.391Z,44.00
2018-08-07T11:15:10.572Z,44.30
2018-08-07T11:17:39.211Z,44.60
2018-08-07T11:20:08.359Z,44.80
2018-08-07T11:22:36.698Z,45.00
2018-08-07T11:25:05.536Z,44.90
2018-08-07T11:27:33.952Z,44.90
2018-08-07T11:30:02.410Z,45.00
2018-08-07T11:32:31.070Z,45.20
2018-08-07T11:34:59.521Z,45.40
2018-08-07T11:37:27.913Z,45.50
2018-08-07T11:39:56.420Z,45.70
2018-08-07T11:42:24.850Z,45.90
2018-08-07T11:44:53.315Z,46.20
2018-08-07T11:47:21.714Z,46.50
2018-08-07T11:49:50.164Z,46.60
2018-08-07T11:52:18.576Z,46.70
2018-08-07T11:54:47.222Z,46.70
2018-08-07T11:57:15.712Z,46.80
2018-08-07T11:59:44.664Z,47.10
2018-08-07T12:02:14.330Z,47.30
2018-08-07T12:04:42.879Z,47.60
2018-08-07T12:07:11.262Z,47.80
2018-08-07T12:09:39.674Z,48.00
2018-08-07T12:12:08.052Z,48.30
2018-08-07T12:14:36.547Z,48.50
2018-08-07T12:17:05.016Z,48.60
2018-08-07T12:19:33.463Z,48.60
2018-08-07T12:22:01.823Z,48.60
2018-08-07T12:24:30.322Z,48.60
2018-08-07T12:26:59.233Z,48.60
2018-08-07T12:29:27.739Z,48.70
2018-08-07T12:31:56.118Z,48.70
2018-08-07T12:34:24.661Z,48.80
2018-08-07T12:36:53.035Z,48.50
2018-08-07T12:39:21.963Z,47.90
2018-08-07T12:41:50.826Z,47.50
2018-08-07T12:44:19.208Z,47.20
2018-08-07T12:46:47.736Z,47.00
2018-08-07T12:49:16.397Z,46.90
2018-08-07T12:51:44.859Z,47.10
2018-08-07T12:54:13.311Z,47.30
2018-08-07T12:56:41.686Z,47.40
2018-08-07T12:59:10.028Z,46.90
2018-08-07T13:01:38.395Z,46.50
2018-08-07T13:04:06.839Z,45.90
2018-08-07T13:06:35.255Z,45.50
2018-08-07T13:09:05.751Z,45.10
2018-08-07T13:11:34.365Z,44.70
2018-08-07T13:14:02.869Z,44.40
2018-08-07T13:16:31.349Z,44.00
2018-08-07T13:18:59.759Z,43.60
2018-08-07T13:21:28.367Z,43.30
2018-08-07T13:23:57.292Z,42.90
2018-08-07T13:26:25.915Z,42.80
2018-08-07T13:28:54.523Z,42.60
2018-08-07T13:31:22.902Z,42.30
2018-08-07T13:33:51.379Z,42.00
2018-08-07T13:36:19.972Z,41.60
2018-08-07T13:38:48.699Z,41.20
2018-08-07T13:41:17.130Z,40.90
2018-08-07T13:43:45.672Z,40.70
2018-08-07T13:46:14.075Z,40.60
2018-08-07T13:48:42.504Z,40.60
2018-08-07T13:51:10.883Z,40.30
2018-08-07T13:53:39.229Z,40.30
2018-08-07T13:56:07.605Z,40.30
2018-08-07T13:58:36.133Z,40.10
2018-08-07T14:01:04.546Z,40.00
2018-08-07T14:03:32.951Z,39.90
2018-08-07T14:06:01.475Z,39.90
2018-08-07T14:08:29.838Z,39.90
2018-08-07T14:10:58.415Z,39.90
2018-08-07T14:13:26.832Z,40.00
2018-08-07T14:15:55.228Z,40.00
2018-08-07T14:18:23.599Z,39.90
2018-08-07T14:20:51.970Z,39.70
2018-08-07T14:23:20.507Z,39.40
2018-08-07T14:25:49.004Z,39.30
2018-08-07T14:28:17.469Z,39.00
2018-08-07T14:30:46.155Z,38.80
2018-08-07T14:33:14.514Z,38.60
2018-08-07T14:35:42.942Z,38.20
2018-08-07T14:38:11.457Z,37.90
2018-08-07T14:40:39.829Z,37.30
2018-08-07T14:43:08.223Z,36.50
2018-08-07T14:45:36.654Z,35.60
2018-08-07T14:48:05.742Z,34.60
2018-08-07T14:50:34.196Z,33.40
2018-08-07T14:53:02.904Z,32.00
2018-08-07T14:55:31.594Z,31.10
2018-08-07T14:58:00.403Z,30.70
2018-08-07T15:00:29.976Z,30.30
2018-08-07T15:02:58.836Z,29.90
2018-08-07T15:05:27.366Z,29.60
2018-08-07T15:07:55.801Z,29.30
2018-08-07T15:10:25.475Z,29.30
2018-08-07T15:12:53.912Z,29.30
2018-08-07T15:15:25.307Z,29.20
2018-08-07T15:17:53.858Z,29.20
2018-08-07T15:20:25.219Z,29.30
2018-08-07T15:22:54.284Z,29.30
2018-08-07T15:25:23.068Z,29.20
2018-08-07T15:27:51.528Z,29.20
2018-08-07T15:30:21.158Z,29.30
2018-08-07T15:32:50.196Z,29.60
2018-08-07T15:35:20.084Z,30.10
2018-08-07T15:37:48.774Z,30.40
2018-08-07T15:40:17.547Z,30.70
2018-08-07T15:42:46.468Z,31.00
2018-08-07T15:45:17.273Z,31.30
2018-08-07T15:47:45.753Z,31.60
2018-08-07T15:50:16.549Z,31.70
2018-08-07T15:52:47.664Z,31.70
2018-08-07T15:55:18.244Z,31.80
2018-08-07T15:57:47.909Z,31.90
2018-08-07T16:00:26.240Z,32.10
2018-08-07T16:02:54.774Z,32.30
2018-08-07T16:05:23.214Z,32.50
2018-08-07T16:07:52.721Z,32.60
2018-08-07T16:10:21.657Z,32.80
2018-08-07T16:12:51.199Z,32.90
2018-08-07T16:15:19.925Z,33.20
2018-08-07T16:17:49.415Z,33.30
2018-08-07T16:20:18.008Z,33.60
2018-08-07T16:22:46.477Z,33.80
2018-08-07T16:25:16.295Z,34.10
2018-08-07T16:27:46.040Z,34.50
2018-08-07T16:30:20.135Z,34.50
2018-08-07T16:32:48.820Z,34.50
2018-08-07T16:35:17.554Z,34.50
2018-08-07T16:37:46.353Z,34.50
2018-08-07T16:40:17.283Z,34.50
2018-08-07T16:42:46.654Z,34.50
2018-08-07T16:45:16.930Z,34.20
2018-08-07T16:47:45.396Z,34.00
2018-08-07T16:50:19.475Z,33.80
2018-08-07T16:52:49.005Z,33.60
2018-08-07T16:55:17.626Z,33.50
2018-08-07T16:57:46.449Z,33.60
2018-08-07T17:00:15.332Z,33.50
2018-08-07T17:02:43.910Z,33.60
2018-08-07T17:05:14.379Z,33.70
2018-08-07T17:07:43.635Z,33.90
2018-08-07T17:10:15.983Z,34.00
2018-08-07T17:12:44.631Z,34.10
2018-08-07T17:15:13.084Z,34.20
2018-08-07T17:17:42.303Z,34.20
2018-08-07T17:20:14.111Z,34.20
2018-08-07T17:22:42.915Z,34.20
2018-08-07T17:25:13.571Z,34.10
2018-08-07T17:27:42.412Z,34.00
2018-08-07T17:30:20.847Z,33.90
2018-08-07T17:32:49.305Z,33.80
2018-08-07T17:35:19.739Z,33.80
2018-08-07T17:37:49.404Z,33.80
2018-08-07T17:40:19.886Z,33.60
2018-08-07T17:42:48.623Z,33.50
2018-08-07T17:45:17.088Z,33.30
2018-08-07T17:47:45.566Z,33.30
2018-08-07T17:50:19.718Z,33.30
2018-08-07T17:52:48.199Z,33.30
2018-08-07T17:55:16.878Z,33.30
2018-08-07T17:57:45.417Z,33.20
2018-08-07T18:00:16.443Z,33.20
2018-08-07T18:02:45.502Z,33.20
2018-08-07T18:05:14.598Z,33.20
2018-08-07T18:07:44.984Z,33.30
2018-08-07T18:10:14.147Z,33.40
2018-08-07T18:12:42.822Z,33.30
2018-08-07T18:15:13.228Z,33.30
2018-08-07T18:17:42.220Z,33.20
2018-08-07T18:20:15.363Z,33.10
2018-08-07T18:22:43.895Z,33.10
2018-08-07T18:25:12.576Z,33.00
2018-08-07T18:27:41.168Z,32.90
2018-08-07T18:30:13.271Z,32.80
2018-08-07T18:32:42.219Z,32.70
2018-08-07T18:35:12.520Z,32.60
2018-08-07T18:37:41.008Z,32.40
2018-08-07T18:40:09.721Z,32.30
2018-08-07T18:42:38.188Z,32.10
2018-08-07T18:45:08.981Z,32.10
2018-08-07T18:47:39.358Z,32.10
2018-08-07T18:50:09.379Z,32.20
2018-08-07T18:52:37.827Z,32.20
2018-08-07T18:55:08.982Z,32.00
2018-08-07T18:57:37.516Z,31.90
2018-08-07T19:00:08.155Z,31.90
2018-08-07T19:02:36.747Z,31.90
2018-08-07T19:05:06.241Z,31.90
2018-08-07T19:07:34.675Z,31.80
2018-08-07T19:10:03.059Z,31.70
2018-08-07T19:12:31.468Z,31.60
2018-08-07T19:14:59.864Z,31.60
2018-08-07T19:17:28.257Z,31.50
2018-08-07T19:19:56.675Z,31.50
2018-08-07T19:22:25.068Z,31.50
2018-08-07T19:24:53.411Z,31.50
2018-08-07T19:27:21.987Z,31.40
2018-08-07T19:29:50.391Z,31.40
2018-08-07T19:32:19.351Z,31.40
2018-08-07T19:34:47.847Z,31.40
2018-08-07T19:37:16.277Z,31.30
2018-08-07T19:39:44.618Z,31.20
2018-08-07T19:42:12.967Z,31.30
2018-08-07T19:44:41.339Z,31.40
2018-08-07T19:47:09.676Z,31.50
2018-08-07T19:49:38.051Z,31.50
2018-08-07T19:52:06.731Z,31.40
2018-08-07T19:54:35.092Z,31.30
2018-08-07T19:57:40.128Z,31.40
2018-08-07T20:00:14.051Z,31.50
2018-08-07T20:02:42.450Z,31.60
2018-08-07T20:05:11.090Z,31.60
2018-08-07T20:07:39.608Z,31.60
2018-08-07T20:10:09.459Z,31.60
2018-08-07T20:12:38.040Z,31.60
2018-08-07T20:15:09.447Z,31.60
2018-08-07T20:17:38.033Z,31.60
2018-08-07T20:20:07.431Z,31.50
2018-08-07T20:22:35.772Z,31.50
2018-08-07T20:25:04.651Z,31.40
2018-08-07T20:27:33.018Z,31.20
2018-08-07T20:30:01.355Z,31.10
2018-08-07T20:32:29.669Z,30.90
2018-08-07T20:34:58.044Z,30.90
2018-08-07T20:37:26.425Z,30.90
2018-08-07T20:39:54.910Z,30.90
2018-08-07T20:42:23.536Z,30.80
2018-08-07T20:44:51.994Z,30.70
2018-08-07T20:47:26.896Z,30.70
2018-08-07T20:49:55.517Z,30.70
2018-08-07T20:52:23.994Z,30.80
2018-08-07T20:54:52.673Z,30.70
2018-08-07T20:57:21.051Z,30.70
2018-08-07T20:59:49.511Z,30.70
2018-08-07T21:02:18.328Z,30.60
2018-08-07T21:04:46.828Z,30.50
2018-08-07T21:07:15.504Z,30.40
2018-08-07T21:09:44.695Z,30.30
2018-08-07T21:12:13.286Z,30.20
2018-08-07T21:14:41.631Z,30.20
2018-08-07T21:17:10.068Z,30.30
2018-08-07T21:19:39.104Z,30.30
2018-08-07T21:22:07.496Z,30.30
2018-08-07T21:24:36.027Z,30.40
2018-08-07T21:27:04.396Z,30.40
2018-08-07T21:29:32.820Z,30.50
2018-08-07T21:32:01.239Z,30.70
2018-08-07T21:34:29.615Z,30.80
2018-08-07T21:36:57.976Z,30.90
2018-08-07T21:39:26.286Z,31.00
2018-08-07T21:41:54.764Z,31.10
2018-08-07T21:44:23.311Z,31.10
2018-08-07T21:46:51.635Z,31.10
2018-08-07T21:49:20.183Z,31.10
2018-08-07T21:51:48.619Z,31.10
2018-08-07T21:54:17.051Z,31.10
2018-08-07T21:56:45.504Z,31.10
2018-08-07T21:59:14.211Z,31.20
2018-08-07T22:01:42.590Z,31.20
2018-08-07T22:04:11.051Z,31.10
2018-08-07T22:08:48.942Z,31.10
2018-08-07T22:11:17.396Z,31.10
2018-08-07T22:13:45.903Z,31.20
2018-08-07T22:16:14.289Z,31.20
2018-08-07T22:18:42.668Z,31.30
2018-08-07T22:21:10.987Z,31.40
2018-08-07T22:23:39.355Z,31.50
2018-08-07T22:26:07.791Z,31.60
2018-08-07T22:28:36.231Z,31.70
2018-08-07T22:31:04.653Z,31.80
2018-08-07T22:33:32.998Z,31.80
2018-08-07T22:36:01.361Z,31.90
2018-08-07T22:38:29.721Z,31.90
2018-08-07T22:40:58.167Z,32.00
2018-08-07T22:43:26.486Z,32.00
2018-08-07T22:45:55.029Z,32.00
2018-08-07T22:48:23.428Z,32.00
2018-08-07T22:50:51.851Z,32.00
2018-08-07T22:53:20.440Z,32.00
2018-08-07T22:55:49.251Z,32.00
2018-08-07T22:58:17.773Z,32.00
2018-08-07T23:00:46.179Z,32.00
2018-08-07T23:03:14.483Z,32.00
2018-08-07T23:05:42.883Z,31.90
2018-08-07T23:08:11.220Z,31.90
2018-08-07T23:10:39.611Z,31.90
2018-08-07T23:13:08.089Z,31.90
2018-08-07T23:15:36.543Z,31.80
2018-08-07T23:18:05.600Z,31.80
2018-08-07T23:20:34.157Z,31.80
2018-08-07T23:23:02.827Z,31.80
2018-08-07T23:25:31.497Z,31.80
2018-08-07T23:27:59.926Z,31.80
2018-08-07T23:30:28.338Z,31.80
2018-08-07T23:32:56.812Z,31.80
2018-08-07T23:35:25.287Z,31.70
2018-08-07T23:37:53.787Z,31.70
2018-08-07T23:40:22.253Z,31.70
2018-08-07T23:42:50.715Z,31.70
2018-08-07T23:45:19.129Z,31.70
2018-08-07T23:47:47.455Z,31.60
2018-08-07T23:50:15.859Z,31.60
2018-08-07T23:52:44.207Z,31.60
2018-08-07T23:55:12.625Z,31.50
2018-08-07T23:57:41.015Z,31.50
